»·PEaware :: N476WK KSBD-KPSP

N476WK :: KSBD-KPSP

FLIGHT INFORMATION

Flight Status: Arrived
Operator: Privately registered:
United States
More flights under this callsign
Pilot: Kris Z. (17393)
Aircraft: CESSNA 172 SKYHAWK
(C172)
More flights by this aircraft type
Origin: KSBD San Bernardino Intl
United States
Destination: KPSP Palm Springs Intl
United States
More flights between these airports :: More routes between these airports
Route: +KSBD KBNG KPSP
File this flight plan on PilotEdge
Remarks:
Altitude:
(Current/Filed)
7,500ft
Speed:
(Current/Filed)
100kts
Departed: 24-Dec-17 11:48 AM
Arrived: 24-Dec-17 12:21 PM
Distance/Time
Traveled:
40nm/0:33
Distance/Time
To Go:
Arrived

Flight Plot

Page will automatically refresh every two minutes.

Flight plan parsing failed; only flown route is shown


Map Options




Map Legend


Flown Route
Filed Route
Departure Airport
Arrival Airport
Navaid (VOR, NDB)
Fix

Horizontal Profiles

Position Reports

Time Latitude Longitude Heading Altitude Ground
Speed
24-Dec-17 11:42 34.102425 -117.224717 93 1146ft 0kts
24-Dec-17 11:43 34.102425 -117.224717 93 1146ft 0kts
24-Dec-17 11:44 34.102425 -117.224717 93 1146ft 0kts
24-Dec-17 11:45 34.102425 -117.224717 93 1146ft 0kts
24-Dec-17 11:46 34.102425 -117.224717 93 1146ft 0kts
24-Dec-17 11:47 34.102425 -117.224717 93 1146ft 0kts
24-Dec-17 11:48 34.102425 -117.224717 93 1146ft 0kts
24-Dec-17 11:49 34.102425 -117.224717 93 1146ft 0kts
24-Dec-17 11:50 34.100863 -117.224408 137 1145ft 9kts
24-Dec-17 11:51 34.100930 -117.222042 70 1151ft 16kts
24-Dec-17 11:52 34.100837 -117.219734 158 1157ft 0kts
24-Dec-17 11:53 34.099903 -117.219677 203 1156ft 8kts
24-Dec-17 11:54 34.093962 -117.238633 251 1677ft 79kts
24-Dec-17 11:55 34.074956 -117.238482 149 2327ft 97kts
24-Dec-17 11:56 34.054557 -117.217526 121 2654ft 92kts
24-Dec-17 11:57 34.041212 -117.194075 123 3253ft 80kts
24-Dec-17 11:58 34.030046 -117.170475 109 4045ft 83kts
24-Dec-17 11:59 34.023164 -117.151435 112 4625ft 83kts
24-Dec-17 12:00 34.009856 -117.121131 103 5519ft 82kts
24-Dec-17 12:01 33.998850 -117.096195 119 6149ft 85kts
24-Dec-17 12:02 33.988265 -117.070512 112 6759ft 87kts
24-Dec-17 12:03 33.988229 -117.070419 112 6761ft 87kts
24-Dec-17 12:04 33.967497 -117.019150 111 7510ft 97kts
24-Dec-17 12:05 33.957704 -116.988517 109 7525ft 104kts
24-Dec-17 12:06 33.948741 -116.955586 103 7512ft 105kts
24-Dec-17 12:07 33.941092 -116.920075 98 7505ft 105kts
24-Dec-17 12:08 33.937372 -116.885242 94 7500ft 104kts
24-Dec-17 12:09 33.934290 -116.850565 94 7482ft 103kts
24-Dec-17 12:10 33.929716 -116.817373 97 6941ft 98kts
24-Dec-17 12:11 33.927141 -116.795083 91 6533ft 90kts
24-Dec-17 12:12 33.923184 -116.758375 98 5832ft 87kts
24-Dec-17 12:13 33.919595 -116.730017 95 5347ft 84kts
24-Dec-17 12:14 33.916115 -116.702118 94 4868ft 83kts
24-Dec-17 12:15 33.914502 -116.674455 87 4430ft 82kts
24-Dec-17 12:16 33.913678 -116.647049 90 4036ft 81kts
24-Dec-17 12:17 33.910993 -116.620209 98 3658ft 81kts
24-Dec-17 12:18 33.898401 -116.597909 137 3253ft 85kts
24-Dec-17 12:19 33.879491 -116.580140 144 2739ft 86kts
24-Dec-17 12:20 33.859714 -116.564802 143 2156ft 83kts
24-Dec-17 12:21 33.844227 -116.546249 117 1598ft 74kts
24-Dec-17 12:22 33.833987 -116.529878 138 1339ft 56kts
24-Dec-17 12:23 33.818869 -116.515839 138 1599ft 80kts
24-Dec-17 12:24 33.802640 -116.500861 121 1512ft 60kts
24-Dec-17 12:25 33.810164 -116.491170 338 1255ft 57kts
24-Dec-17 12:26 33.822367 -116.501227 324 489ft 50kts
24-Dec-17 12:27 33.829133 -116.507075 336 423ft 15kts
24-Dec-17 12:28 33.829912 -116.506256 120 423ft 11kts
24-Dec-17 12:29 33.828125 -116.504651 137 418ft 19kts
24-Dec-17 12:30 33.824052 -116.500538 53 402ft 0kts
24-Dec-17 12:31 33.824649 -116.499570 55 401ft 8kts
24-Dec-17 12:32 33.823691 -116.498920 143 400ft 5kts

Navigation Log

Ident Type
Flight plan parsing failed, navigation log unavailable